sensor_id;sensor_type;location;lat;lon;timestamp;pressure;altitude;pressure_sealevel;temperature;humidity
45991;BME280;31721;41.740;-88.000;2023-05-29T00:01:13;99065.50;;;24.81;17.40
45991;BME280;31721;41.740;-88.000;2023-05-29T00:03:41;99064.37;;;24.86;17.47
45991;BME280;31721;41.740;-88.000;2023-05-29T00:06:09;99067.32;;;24.84;17.73
45991;BME280;31721;41.740;-88.000;2023-05-29T00:08:36;99073.76;;;24.80;17.90
45991;BME280;31721;41.740;-88.000;2023-05-29T00:11:04;99074.44;;;24.80;18.16
45991;BME280;31721;41.740;-88.000;2023-05-29T00:13:32;99073.74;;;24.87;18.13
45991;BME280;31721;41.740;-88.000;2023-05-29T00:15:59;99071.81;;;24.82;18.27
45991;BME280;31721;41.740;-88.000;2023-05-29T00:18:27;99074.60;;;24.69;17.89
45991;BME280;31721;41.740;-88.000;2023-05-29T00:20:55;99073.14;;;24.46;17.80
45991;BME280;31721;41.740;-88.000;2023-05-29T00:23:23;99074.16;;;24.46;17.82
45991;BME280;31721;41.740;-88.000;2023-05-29T00:25:50;99073.02;;;24.40;18.11
45991;BME280;31721;41.740;-88.000;2023-05-29T00:28:18;99072.85;;;24.35;18.29
45991;BME280;31721;41.740;-88.000;2023-05-29T00:30:46;99071.63;;;24.30;18.74
45991;BME280;31721;41.740;-88.000;2023-05-29T00:33:14;99067.36;;;24.17;18.64
45991;BME280;31721;41.740;-88.000;2023-05-29T00:35:41;99064.14;;;24.19;18.51
45991;BME280;31721;41.740;-88.000;2023-05-29T00:38:09;99060.03;;;24.13;18.42
45991;BME280;31721;41.740;-88.000;2023-05-29T00:40:37;99061.03;;;24.07;18.96
45991;BME280;31721;41.740;-88.000;2023-05-29T00:43:06;99060.01;;;24.05;19.11
45991;BME280;31721;41.740;-88.000;2023-05-29T00:45:34;99060.32;;;24.02;19.00
45991;BME280;31721;41.740;-88.000;2023-05-29T00:48:02;99063.30;;;24.11;19.19
45991;BME280;31721;41.740;-88.000;2023-05-29T00:50:31;99061.60;;;23.93;19.32
45991;BME280;31721;41.740;-88.000;2023-05-29T00:53:00;99065.98;;;23.91;19.52
45991;BME280;31721;41.740;-88.000;2023-05-29T00:55:29;99067.48;;;23.85;19.41
45991;BME280;31721;41.740;-88.000;2023-05-29T00:57:57;99066.39;;;23.97;19.74
45991;BME280;31721;41.740;-88.000;2023-05-29T01:00:25;99068.00;;;23.77;19.49
45991;BME280;31721;41.740;-88.000;2023-05-29T01:02:53;99066.90;;;23.84;19.60
45991;BME280;31721;41.740;-88.000;2023-05-29T01:05:20;99065.12;;;23.78;19.26
45991;BME280;31721;41.740;-88.000;2023-05-29T01:07:48;99062.97;;;23.70;19.16
45991;BME280;31721;41.740;-88.000;2023-05-29T01:10:16;99061.51;;;23.62;19.21
45991;BME280;31721;41.740;-88.000;2023-05-29T01:12:49;99061.45;;;23.54;19.36
45991;BME280;31721;41.740;-88.000;2023-05-29T01:15:26;99062.10;;;23.45;19.41
45991;BME280;31721;41.740;-88.000;2023-05-29T01:18:10;99063.50;;;23.39;19.47
45991;BME280;31721;41.740;-88.000;2023-05-29T01:20:44;99070.70;;;23.30;19.49
45991;BME280;31721;41.740;-88.000;2023-05-29T01:23:36;99073.80;;;23.20;19.54
45991;BME280;31721;41.740;-88.000;2023-05-29T01:27:10;99071.32;;;23.09;19.48
45991;BME280;31721;41.740;-88.000;2023-05-29T01:29:39;99071.24;;;22.95;19.64
45991;BME280;31721;41.740;-88.000;2023-05-29T01:32:10;99072.30;;;22.89;19.86
45991;BME280;31721;41.740;-88.000;2023-05-29T01:34:38;99072.77;;;22.87;19.93
45991;BME280;31721;41.740;-88.000;2023-05-29T01:37:05;99078.86;;;22.69;20.00
45991;BME280;31721;41.740;-88.000;2023-05-29T01:39:34;99082.87;;;22.61;20.03
45991;BME280;31721;41.740;-88.000;2023-05-29T01:42:03;99087.91;;;22.59;20.16
45991;BME280;31721;41.740;-88.000;2023-05-29T01:44:31;99090.96;;;22.58;20.44
45991;BME280;31721;41.740;-88.000;2023-05-29T01:47:00;99090.78;;;22.48;20.40
45991;BME280;31721;41.740;-88.000;2023-05-29T01:49:31;99094.74;;;22.31;20.42
45991;BME280;31721;41.740;-88.000;2023-05-29T01:51:59;99097.44;;;22.27;20.71
45991;BME280;31721;41.740;-88.000;2023-05-29T01:54:27;99101.15;;;22.19;20.95
45991;BME280;31721;41.740;-88.000;2023-05-29T01:56:55;99101.89;;;22.13;21.18
45991;BME280;31721;41.740;-88.000;2023-05-29T01:59:23;99102.24;;;22.04;21.22
45991;BME280;31721;41.740;-88.000;2023-05-29T02:01:52;99106.74;;;21.96;21.61
45991;BME280;31721;41.740;-88.000;2023-05-29T02:04:19;99108.04;;;21.87;21.53
45991;BME280;31721;41.740;-88.000;2023-05-29T02:06:47;99110.76;;;21.77;21.80
45991;BME280;31721;41.740;-88.000;2023-05-29T02:09:18;99112.99;;;21.68;21.65
45991;BME280;31721;41.740;-88.000;2023-05-29T02:11:45;99110.84;;;21.58;21.90
45991;BME280;31721;41.740;-88.000;2023-05-29T02:14:13;99114.62;;;21.62;22.12
45991;BME280;31721;41.740;-88.000;2023-05-29T02:16:41;99116.67;;;21.37;22.15
45991;BME280;31721;41.740;-88.000;2023-05-29T02:19:09;99117.10;;;21.35;22.07
45991;BME280;31721;41.740;-88.000;2023-05-29T02:21:38;99117.07;;;21.27;22.28
45991;BME280;31721;41.740;-88.000;2023-05-29T02:24:06;99118.75;;;21.25;22.17
45991;BME280;31721;41.740;-88.000;2023-05-29T02:26:34;99116.84;;;21.08;22.40
45991;BME280;31721;41.740;-88.000;2023-05-29T02:29:02;99119.30;;;21.10;22.46
45991;BME280;31721;41.740;-88.000;2023-05-29T02:31:30;99119.78;;;21.02;22.34
45991;BME280;31721;41.740;-88.000;2023-05-29T02:33:58;99122.70;;;20.93;22.40
45991;BME280;31721;41.740;-88.000;2023-05-29T02:36:26;99124.44;;;20.86;22.45
45991;BME280;31721;41.740;-88.000;2023-05-29T02:38:53;99126.80;;;20.76;22.37
45991;BME280;31721;41.740;-88.000;2023-05-29T02:41:21;99124.57;;;20.78;22.55
45991;BME280;31721;41.740;-88.000;2023-05-29T02:43:49;99125.34;;;20.80;22.80
45991;BME280;31721;41.740;-88.000;2023-05-29T02:46:16;99126.85;;;20.68;23.17
45991;BME280;31721;41.740;-88.000;2023-05-29T02:48:44;99131.33;;;20.70;22.93
45991;BME280;31721;41.740;-88.000;2023-05-29T02:51:12;99136.02;;;20.54;22.59
45991;BME280;31721;41.740;-88.000;2023-05-29T02:53:40;99136.73;;;20.57;22.56
45991;BME280;31721;41.740;-88.000;2023-05-29T02:56:08;99138.49;;;20.36;22.49
45991;BME280;31721;41.740;-88.000;2023-05-29T02:58:36;99137.53;;;20.43;22.81
45991;BME280;31721;41.740;-88.000;2023-05-29T03:01:04;99135.69;;;20.39;22.81
45991;BME280;31721;41.740;-88.000;2023-05-29T03:03:32;99134.83;;;20.28;23.24
45991;BME280;31721;41.740;-88.000;2023-05-29T03:06:00;99137.21;;;20.32;23.16
45991;BME280;31721;41.740;-88.000;2023-05-29T03:08:28;99138.78;;;20.25;23.52
45991;BME280;31721;41.740;-88.000;2023-05-29T03:10:56;99140.62;;;20.20;23.47
45991;BME280;31721;41.740;-88.000;2023-05-29T03:13:24;99141.32;;;20.13;23.13
45991;BME280;31721;41.740;-88.000;2023-05-29T03:15:51;99141.78;;;20.05;23.24
45991;BME280;31721;41.740;-88.000;2023-05-29T03:18:19;99142.87;;;19.99;23.34
45991;BME280;31721;41.740;-88.000;2023-05-29T03:20:47;99143.73;;;19.93;23.80
45991;BME280;31721;41.740;-88.000;2023-05-29T03:23:15;99141.73;;;19.84;23.61
45991;BME280;31721;41.740;-88.000;2023-05-29T03:25:43;99140.08;;;19.76;23.84
45991;BME280;31721;41.740;-88.000;2023-05-29T03:28:11;99141.14;;;19.67;23.65
45991;BME280;31721;41.740;-88.000;2023-05-29T03:30:39;99145.23;;;19.58;23.74
45991;BME280;31721;41.740;-88.000;2023-05-29T03:33:07;99141.86;;;19.60;24.07
45991;BME280;31721;41.740;-88.000;2023-05-29T03:35:35;99142.32;;;19.44;24.06
45991;BME280;31721;41.740;-88.000;2023-05-29T03:38:03;99138.35;;;19.35;24.44
45991;BME280;31721;41.740;-88.000;2023-05-29T03:40:31;99139.73;;;19.19;24.52
45991;BME280;31721;41.740;-88.000;2023-05-29T03:42:59;99140.38;;;19.20;25.01
45991;BME280;31721;41.740;-88.000;2023-05-29T03:45:27;99138.13;;;19.21;24.64
45991;BME280;31721;41.740;-88.000;2023-05-29T03:47:55;99140.17;;;19.16;25.12
45991;BME280;31721;41.740;-88.000;2023-05-29T03:50:23;99139.12;;;19.11;25.25
45991;BME280;31721;41.740;-88.000;2023-05-29T03:52:52;99135.39;;;19.04;24.92
45991;BME280;31721;41.740;-88.000;2023-05-29T03:55:20;99133.73;;;18.88;25.08
45991;BME280;31721;41.740;-88.000;2023-05-29T03:57:48;99132.56;;;18.92;24.80
45991;BME280;31721;41.740;-88.000;2023-05-29T04:00:16;99129.98;;;18.87;25.09
45991;BME280;31721;41.740;-88.000;2023-05-29T04:02:44;99127.78;;;18.88;25.30
45991;BME280;31721;41.740;-88.000;2023-05-29T04:05:12;99120.77;;;18.85;25.21
45991;BME280;31721;41.740;-88.000;2023-05-29T04:07:41;99118.90;;;18.82;25.61
45991;BME280;31721;41.740;-88.000;2023-05-29T04:10:09;99116.38;;;18.78;26.00
45991;BME280;31721;41.740;-88.000;2023-05-29T04:12:37;99114.39;;;18.76;25.71
45991;BME280;31721;41.740;-88.000;2023-05-29T04:15:07;99111.47;;;18.72;25.65
45991;BME280;31721;41.740;-88.000;2023-05-29T04:17:35;99107.86;;;18.63;26.01
45991;BME280;31721;41.740;-88.000;2023-05-29T04:20:04;99104.59;;;18.57;26.25
45991;BME280;31721;41.740;-88.000;2023-05-29T04:22:31;99099.72;;;18.51;26.31
45991;BME280;31721;41.740;-88.000;2023-05-29T04:24:59;99096.74;;;18.48;26.27
45991;BME280;31721;41.740;-88.000;2023-05-29T04:27:26;99097.14;;;18.46;26.73
45991;BME280;31721;41.740;-88.000;2023-05-29T04:29:54;99102.63;;;18.43;26.43
45991;BME280;31721;41.740;-88.000;2023-05-29T04:32:22;99102.07;;;18.41;26.35
45991;BME280;31721;41.740;-88.000;2023-05-29T04:34:50;99102.73;;;18.35;26.53
45991;BME280;31721;41.740;-88.000;2023-05-29T04:37:18;99097.03;;;18.20;26.92
45991;BME280;31721;41.740;-88.000;2023-05-29T04:39:46;99097.55;;;18.13;26.96
45991;BME280;31721;41.740;-88.000;2023-05-29T04:42:14;99094.78;;;18.10;26.89
45991;BME280;31721;41.740;-88.000;2023-05-29T04:44:41;99096.76;;;18.03;26.89
45991;BME280;31721;41.740;-88.000;2023-05-29T04:47:09;99096.37;;;17.95;27.04
45991;BME280;31721;41.740;-88.000;2023-05-29T04:49:39;99093.75;;;17.81;27.14
45991;BME280;31721;41.740;-88.000;2023-05-29T04:52:07;99095.67;;;17.80;27.12
45991;BME280;31721;41.740;-88.000;2023-05-29T04:54:35;99096.31;;;17.75;27.34
45991;BME280;31721;41.740;-88.000;2023-05-29T04:57:03;99098.06;;;17.66;27.24
45991;BME280;31721;41.740;-88.000;2023-05-29T04:59:31;99101.89;;;17.58;27.19
45991;BME280;31721;41.740;-88.000;2023-05-29T05:01:58;99100.54;;;17.53;27.56
45991;BME280;31721;41.740;-88.000;2023-05-29T05:04:26;99098.00;;;17.39;27.75
45991;BME280;31721;41.740;-88.000;2023-05-29T05:06:54;99094.82;;;17.39;27.67
45991;BME280;31721;41.740;-88.000;2023-05-29T05:09:22;99089.94;;;17.32;27.80
45991;BME280;31721;41.740;-88.000;2023-05-29T05:11:50;99091.79;;;17.24;28.08
45991;BME280;31721;41.740;-88.000;2023-05-29T05:14:18;99090.95;;;17.16;28.15
45991;BME280;31721;41.740;-88.000;2023-05-29T05:16:46;99095.75;;;17.11;28.03
45991;BME280;31721;41.740;-88.000;2023-05-29T05:19:14;99095.14;;;17.12;28.41
45991;BME280;31721;41.740;-88.000;2023-05-29T05:21:41;99093.55;;;16.99;28.51
45991;BME280;31721;41.740;-88.000;2023-05-29T05:24:09;99089.61;;;17.08;28.56
45991;BME280;31721;41.740;-88.000;2023-05-29T05:26:37;99089.73;;;16.95;28.77
45991;BME280;31721;41.740;-88.000;2023-05-29T05:29:05;99089.49;;;16.89;28.93
45991;BME280;31721;41.740;-88.000;2023-05-29T05:31:33;99088.03;;;16.82;28.97
45991;BME280;31721;41.740;-88.000;2023-05-29T05:34:00;99086.79;;;16.67;29.02
45991;BME280;31721;41.740;-88.000;2023-05-29T05:36:28;99086.53;;;16.74;29.33
45991;BME280;31721;41.740;-88.000;2023-05-29T05:38:56;99086.21;;;16.61;29.46
45991;BME280;31721;41.740;-88.000;2023-05-29T05:41:24;99086.31;;;16.62;29.59
45991;BME280;31721;41.740;-88.000;2023-05-29T05:43:52;99082.83;;;16.55;29.56
45991;BME280;31721;41.740;-88.000;2023-05-29T05:46:19;99078.68;;;16.49;29.94
45991;BME280;31721;41.740;-88.000;2023-05-29T05:48:47;99074.71;;;16.46;29.92
45991;BME280;31721;41.740;-88.000;2023-05-29T05:51:15;99073.68;;;16.41;30.30
45991;BME280;31721;41.740;-88.000;2023-05-29T05:53:43;99070.26;;;16.38;30.35
45991;BME280;31721;41.740;-88.000;2023-05-29T05:56:10;99069.13;;;16.34;30.58
45991;BME280;31721;41.740;-88.000;2023-05-29T05:58:38;99068.45;;;16.27;30.52
45991;BME280;31721;41.740;-88.000;2023-05-29T06:01:05;99068.71;;;16.24;30.72
45991;BME280;31721;41.740;-88.000;2023-05-29T06:03:33;99066.78;;;16.19;31.02
45991;BME280;31721;41.740;-88.000;2023-05-29T06:06:01;99062.69;;;16.16;30.93
45991;BME280;31721;41.740;-88.000;2023-05-29T06:08:29;99063.02;;;16.17;31.08
45991;BME280;31721;41.740;-88.000;2023-05-29T06:10:57;99061.34;;;16.05;31.09
45991;BME280;31721;41.740;-88.000;2023-05-29T06:13:25;99060.21;;;16.11;31.43
45991;BME280;31721;41.740;-88.000;2023-05-29T06:15:52;99055.15;;;16.02;31.57
45991;BME280;31721;41.740;-88.000;2023-05-29T06:18:20;99055.69;;;16.07;31.78
45991;BME280;31721;41.740;-88.000;2023-05-29T06:20:48;99053.04;;;16.03;31.82
45991;BME280;31721;41.740;-88.000;2023-05-29T06:23:16;99053.14;;;16.00;32.05
45991;BME280;31721;41.740;-88.000;2023-05-29T06:25:44;99047.91;;;15.89;31.88
45991;BME280;31721;41.740;-88.000;2023-05-29T06:28:11;99049.31;;;15.87;32.41
45991;BME280;31721;41.740;-88.000;2023-05-29T06:30:39;99046.61;;;15.89;32.27
45991;BME280;31721;41.740;-88.000;2023-05-29T06:33:07;99047.47;;;15.79;32.38
45991;BME280;31721;41.740;-88.000;2023-05-29T06:35:34;99045.60;;;15.91;32.58
45991;BME280;31721;41.740;-88.000;2023-05-29T06:38:02;99049.38;;;15.79;32.60
45991;BME280;31721;41.740;-88.000;2023-05-29T06:40:30;99050.87;;;15.85;33.12
45991;BME280;31721;41.740;-88.000;2023-05-29T06:42:57;99051.51;;;15.74;32.87
45991;BME280;31721;41.740;-88.000;2023-05-29T06:45:25;99050.05;;;15.73;32.99
45991;BME280;31721;41.740;-88.000;2023-05-29T06:47:53;99047.08;;;15.75;32.93
45991;BME280;31721;41.740;-88.000;2023-05-29T06:50:21;99046.06;;;15.65;33.21
45991;BME280;31721;41.740;-88.000;2023-05-29T06:52:49;99044.30;;;15.70;33.05
45991;BME280;31721;41.740;-88.000;2023-05-29T06:55:17;99043.32;;;15.56;33.29
45991;BME280;31721;41.740;-88.000;2023-05-29T06:57:45;99044.99;;;15.55;33.49
45991;BME280;31721;41.740;-88.000;2023-05-29T07:00:14;99043.31;;;15.58;33.59
45991;BME280;31721;41.740;-88.000;2023-05-29T07:02:42;99042.32;;;15.57;33.81
45991;BME280;31721;41.740;-88.000;2023-05-29T07:05:09;99041.64;;;15.53;33.97
45991;BME280;31721;41.740;-88.000;2023-05-29T07:07:37;99039.74;;;15.51;33.98
45991;BME280;31721;41.740;-88.000;2023-05-29T07:10:05;99035.60;;;15.40;34.11
45991;BME280;31721;41.740;-88.000;2023-05-29T07:12:33;99033.68;;;15.45;34.03
45991;BME280;31721;41.740;-88.000;2023-05-29T07:15:01;99031.65;;;15.37;34.14
45991;BME280;31721;41.740;-88.000;2023-05-29T07:17:29;99030.32;;;15.43;34.16
45991;BME280;31721;41.740;-88.000;2023-05-29T07:19:56;99032.07;;;15.40;34.31
45991;BME280;31721;41.740;-88.000;2023-05-29T07:22:24;99030.80;;;15.38;34.29
45991;BME280;31721;41.740;-88.000;2023-05-29T07:24:52;99031.39;;;15.34;34.35
45991;BME280;31721;41.740;-88.000;2023-05-29T07:27:20;99029.25;;;15.27;34.59
45991;BME280;31721;41.740;-88.000;2023-05-29T07:29:47;99028.78;;;15.34;34.63
45991;BME280;31721;41.740;-88.000;2023-05-29T07:32:16;99028.13;;;15.31;34.75
45991;BME280;31721;41.740;-88.000;2023-05-29T07:34:44;99029.62;;;15.29;34.79
45991;BME280;31721;41.740;-88.000;2023-05-29T07:37:12;99028.01;;;15.29;35.12
45991;BME280;31721;41.740;-88.000;2023-05-29T07:39:40;99030.92;;;15.26;34.92
45991;BME280;31721;41.740;-88.000;2023-05-29T07:42:08;99031.61;;;15.25;34.95
45991;BME280;31721;41.740;-88.000;2023-05-29T07:44:35;99031.53;;;15.23;34.88
45991;BME280;31721;41.740;-88.000;2023-05-29T07:47:03;99027.86;;;15.21;34.89
45991;BME280;31721;41.740;-88.000;2023-05-29T07:49:31;99027.27;;;15.20;35.17
45991;BME280;31721;41.740;-88.000;2023-05-29T07:51:59;99025.45;;;15.20;35.15
45991;BME280;31721;41.740;-88.000;2023-05-29T07:54:27;99024.78;;;15.07;35.09
45991;BME280;31721;41.740;-88.000;2023-05-29T07:56:55;99025.36;;;15.15;35.27
45991;BME280;31721;41.740;-88.000;2023-05-29T07:59:23;99025.98;;;15.11;35.25
45991;BME280;31721;41.740;-88.000;2023-05-29T08:01:51;99023.34;;;15.09;35.48
45991;BME280;31721;41.740;-88.000;2023-05-29T08:04:19;99025.82;;;15.09;35.71
45991;BME280;31721;41.740;-88.000;2023-05-29T08:06:47;99028.80;;;15.08;35.67
45991;BME280;31721;41.740;-88.000;2023-05-29T08:09:15;99030.16;;;15.06;35.69
45991;BME280;31721;41.740;-88.000;2023-05-29T08:11:43;99032.46;;;15.02;35.78
45991;BME280;31721;41.740;-88.000;2023-05-29T08:14:11;99033.28;;;15.00;35.65
45991;BME280;31721;41.740;-88.000;2023-05-29T08:16:39;99032.90;;;14.98;36.20
45991;BME280;31721;41.740;-88.000;2023-05-29T08:19:07;99032.13;;;14.95;36.24
45991;BME280;31721;41.740;-88.000;2023-05-29T08:21:35;99029.25;;;14.95;36.48
45991;BME280;31721;41.740;-88.000;2023-05-29T08:24:03;99026.36;;;15.06;36.57
45991;BME280;31721;41.740;-88.000;2023-05-29T08:26:31;99025.84;;;14.90;36.66
45991;BME280;31721;41.740;-88.000;2023-05-29T08:28:59;99023.75;;;14.87;36.67
45991;BME280;31721;41.740;-88.000;2023-05-29T08:31:27;99027.33;;;14.91;36.73
45991;BME280;31721;41.740;-88.000;2023-05-29T08:33:54;99027.47;;;14.83;36.78
45991;BME280;31721;41.740;-88.000;2023-05-29T08:36:22;99028.61;;;14.81;36.77
45991;BME280;31721;41.740;-88.000;2023-05-29T08:38:50;99029.07;;;14.78;36.82
45991;BME280;31721;41.740;-88.000;2023-05-29T08:41:21;99026.35;;;14.77;36.85
45991;BME280;31721;41.740;-88.000;2023-05-29T08:43:53;99024.39;;;14.75;36.99
45991;BME280;31721;41.740;-88.000;2023-05-29T08:46:21;99024.09;;;14.79;36.92
45991;BME280;31721;41.740;-88.000;2023-05-29T08:48:49;99023.05;;;14.78;36.94
45991;BME280;31721;41.740;-88.000;2023-05-29T08:51:20;99021.26;;;14.68;37.11
45991;BME280;31721;41.740;-88.000;2023-05-29T08:53:48;99019.49;;;14.74;37.36
45991;BME280;31721;41.740;-88.000;2023-05-29T08:56:16;99021.07;;;14.72;37.33
45991;BME280;31721;41.740;-88.000;2023-05-29T08:58:44;99020.77;;;14.71;37.33
45991;BME280;31721;41.740;-88.000;2023-05-29T09:01:12;99021.51;;;14.63;37.48
45991;BME280;31721;41.740;-88.000;2023-05-29T09:03:40;99023.64;;;14.58;37.48
45991;BME280;31721;41.740;-88.000;2023-05-29T09:06:08;99030.51;;;14.65;37.38
45991;BME280;31721;41.740;-88.000;2023-05-29T09:08:36;99032.04;;;14.70;37.56
45991;BME280;31721;41.740;-88.000;2023-05-29T09:11:04;99034.05;;;14.71;37.70
45991;BME280;31721;41.740;-88.000;2023-05-29T09:13:32;99033.22;;;14.73;37.55
45991;BME280;31721;41.740;-88.000;2023-05-29T09:15:59;99031.24;;;14.57;37.58
45991;BME280;31721;41.740;-88.000;2023-05-29T09:18:29;99033.27;;;14.73;37.76
45991;BME280;31721;41.740;-88.000;2023-05-29T09:20:57;99032.32;;;14.60;37.95
45991;BME280;31721;41.740;-88.000;2023-05-29T09:23:26;99032.47;;;14.67;38.01
45991;BME280;31721;41.740;-88.000;2023-05-29T09:25:54;99032.31;;;14.60;38.10
45991;BME280;31721;41.740;-88.000;2023-05-29T09:28:22;99033.22;;;14.71;37.87
45991;BME280;31721;41.740;-88.000;2023-05-29T09:30:50;99034.46;;;14.56;37.85
45991;BME280;31721;41.740;-88.000;2023-05-29T09:33:18;99035.90;;;14.72;38.28
45991;BME280;31721;41.740;-88.000;2023-05-29T09:35:47;99034.63;;;14.57;38.05
45991;BME280;31721;41.740;-88.000;2023-05-29T09:38:16;99036.36;;;14.63;38.04
45991;BME280;31721;41.740;-88.000;2023-05-29T09:40:44;99033.73;;;14.69;38.12
45991;BME280;31721;41.740;-88.000;2023-05-29T09:43:13;99033.01;;;14.61;38.17
45991;BME280;31721;41.740;-88.000;2023-05-29T09:45:42;99035.25;;;14.52;38.15
45991;BME280;31721;41.740;-88.000;2023-05-29T09:48:14;99033.81;;;14.58;38.37
45991;BME280;31721;41.740;-88.000;2023-05-29T09:50:42;99035.89;;;14.56;38.44
45991;BME280;31721;41.740;-88.000;2023-05-29T09:53:17;99037.13;;;14.50;38.56
45991;BME280;31721;41.740;-88.000;2023-05-29T09:55:46;99037.00;;;14.66;38.92
45991;BME280;31721;41.740;-88.000;2023-05-29T09:58:14;99040.03;;;14.67;39.17
45991;BME280;31721;41.740;-88.000;2023-05-29T10:00:42;99040.48;;;14.53;39.22
45991;BME280;31721;41.740;-88.000;2023-05-29T10:03:10;99043.57;;;14.54;39.13
45991;BME280;31721;41.740;-88.000;2023-05-29T10:05:39;99046.69;;;14.62;38.83
45991;BME280;31721;41.740;-88.000;2023-05-29T10:08:14;99048.36;;;14.54;38.78
45991;BME280;31721;41.740;-88.000;2023-05-29T10:10:45;99052.80;;;14.66;38.77
45991;BME280;31721;41.740;-88.000;2023-05-29T10:13:14;99052.69;;;14.67;38.67
45991;BME280;31721;41.740;-88.000;2023-05-29T10:15:44;99055.00;;;14.60;38.81
45991;BME280;31721;41.740;-88.000;2023-05-29T10:18:16;99056.74;;;14.64;38.78
45991;BME280;31721;41.740;-88.000;2023-05-29T10:20:50;99058.30;;;14.63;38.71
45991;BME280;31721;41.740;-88.000;2023-05-29T10:23:19;99061.40;;;14.53;38.72
45991;BME280;31721;41.740;-88.000;2023-05-29T10:25:52;99062.77;;;14.59;38.89
45991;BME280;31721;41.740;-88.000;2023-05-29T10:28:20;99065.24;;;14.51;38.94
45991;BME280;31721;41.740;-88.000;2023-05-29T10:30:54;99064.71;;;14.43;39.10
45991;BME280;31721;41.740;-88.000;2023-05-29T10:33:37;99067.37;;;14.49;39.05
45991;BME280;31721;41.740;-88.000;2023-05-29T10:36:13;99068.93;;;14.55;39.22
45991;BME280;31721;41.740;-88.000;2023-05-29T10:38:45;99067.56;;;14.56;39.32
45991;BME280;31721;41.740;-88.000;2023-05-29T10:41:30;99072.09;;;14.48;39.28
45991;BME280;31721;41.740;-88.000;2023-05-29T10:43:58;99073.61;;;14.47;39.35
45991;BME280;31721;41.740;-88.000;2023-05-29T10:47:23;99071.81;;;14.42;39.72
45991;BME280;31721;41.740;-88.000;2023-05-29T10:49:51;99071.39;;;14.46;39.97
45991;BME280;31721;41.740;-88.000;2023-05-29T10:52:19;99071.12;;;14.51;39.98
45991;BME280;31721;41.740;-88.000;2023-05-29T10:54:55;99071.34;;;14.55;40.20
45991;BME280;31721;41.740;-88.000;2023-05-29T10:57:23;99074.07;;;14.76;40.30
45991;BME280;31721;41.740;-88.000;2023-05-29T10:59:59;99073.54;;;14.69;40.21
45991;BME280;31721;41.740;-88.000;2023-05-29T11:02:29;99076.58;;;14.67;40.10
45991;BME280;31721;41.740;-88.000;2023-05-29T11:05:20;99077.97;;;14.84;39.97
45991;BME280;31721;41.740;-88.000;2023-05-29T11:08:02;99075.73;;;14.87;40.12
45991;BME280;31721;41.740;-88.000;2023-05-29T11:10:56;99073.24;;;14.95;39.82
45991;BME280;31721;41.740;-88.000;2023-05-29T11:13:26;99075.00;;;15.08;39.69
45991;BME280;31721;41.740;-88.000;2023-05-29T11:20:45;99084.93;;;15.36;39.66
45991;BME280;31721;41.740;-88.000;2023-05-29T11:23:17;99088.09;;;15.31;39.67
45991;BME280;31721;41.740;-88.000;2023-05-29T11:25:46;99087.07;;;15.41;39.45
45991;BME280;31721;41.740;-88.000;2023-05-29T11:28:14;99086.65;;;15.54;39.44
45991;BME280;31721;41.740;-88.000;2023-05-29T11:30:43;99085.51;;;15.63;39.58
45991;BME280;31721;41.740;-88.000;2023-05-29T11:33:16;99083.48;;;15.70;39.49
45991;BME280;31721;41.740;-88.000;2023-05-29T11:35:46;99086.18;;;15.73;39.69
45991;BME280;31721;41.740;-88.000;2023-05-29T11:38:17;99093.25;;;15.88;40.03
45991;BME280;31721;41.740;-88.000;2023-05-29T11:40:45;99095.74;;;15.96;39.82
45991;BME280;31721;41.740;-88.000;2023-05-29T11:43:13;99095.68;;;16.02;39.83
45991;BME280;31721;41.740;-88.000;2023-05-29T11:45:41;99095.87;;;16.07;40.28
45991;BME280;31721;41.740;-88.000;2023-05-29T11:48:09;99099.13;;;16.13;40.35
45991;BME280;31721;41.740;-88.000;2023-05-29T11:50:37;99105.91;;;16.16;40.58
45991;BME280;31721;41.740;-88.000;2023-05-29T11:53:06;99107.47;;;16.21;40.85
45991;BME280;31721;41.740;-88.000;2023-05-29T11:55:34;99108.86;;;16.23;40.95
45991;BME280;31721;41.740;-88.000;2023-05-29T11:58:03;99109.63;;;16.19;40.71
45991;BME280;31721;41.740;-88.000;2023-05-29T12:00:33;99110.99;;;16.32;40.50
45991;BME280;31721;41.740;-88.000;2023-05-29T12:03:02;99113.20;;;16.38;40.76
45991;BME280;31721;41.740;-88.000;2023-05-29T12:05:31;99110.94;;;16.46;40.84
45991;BME280;31721;41.740;-88.000;2023-05-29T12:07:59;99113.31;;;16.46;40.85
45991;BME280;31721;41.740;-88.000;2023-05-29T12:10:28;99108.06;;;16.57;40.12
45991;BME280;31721;41.740;-88.000;2023-05-29T12:12:58;99108.54;;;16.68;40.07
45991;BME280;31721;41.740;-88.000;2023-05-29T12:15:25;99108.92;;;16.77;40.08
45991;BME280;31721;41.740;-88.000;2023-05-29T12:17:55;99108.93;;;16.83;39.94
45991;BME280;31721;41.740;-88.000;2023-05-29T12:20:24;99108.62;;;17.02;40.03
45991;BME280;31721;41.740;-88.000;2023-05-29T12:22:52;99111.47;;;17.11;39.65
45991;BME280;31721;41.740;-88.000;2023-05-29T12:25:20;99113.71;;;17.15;39.71
45991;BME280;31721;41.740;-88.000;2023-05-29T12:27:49;99111.06;;;17.28;40.08
45991;BME280;31721;41.740;-88.000;2023-05-29T12:30:21;99106.91;;;17.33;40.11
45991;BME280;31721;41.740;-88.000;2023-05-29T12:32:49;99107.98;;;17.44;39.96
45991;BME280;31721;41.740;-88.000;2023-05-29T12:35:18;99107.13;;;17.57;39.78
45991;BME280;31721;41.740;-88.000;2023-05-29T12:37:47;99108.69;;;17.65;39.68
45991;BME280;31721;41.740;-88.000;2023-05-29T12:40:16;99110.65;;;17.85;39.60
45991;BME280;31721;41.740;-88.000;2023-05-29T12:42:45;99112.00;;;17.88;38.74
45991;BME280;31721;41.740;-88.000;2023-05-29T12:45:12;99111.79;;;18.01;38.70
45991;BME280;31721;41.740;-88.000;2023-05-29T12:47:51;99115.98;;;18.13;38.80
45991;BME280;31721;41.740;-88.000;2023-05-29T12:50:27;99114.97;;;18.20;38.89
45991;BME280;31721;41.740;-88.000;2023-05-29T12:52:58;99113.96;;;18.23;38.28
45991;BME280;31721;41.740;-88.000;2023-05-29T12:55:26;99117.19;;;18.38;38.21